Time;durP1;ratioP1;P1;durP2;ratioP2;P2;SDS_P1;SDS_P2;PMS_P1;PMS_P2;Temp;Humidity;BMP_temperature;BMP_pressure;BME280_temperature;BME280_humidity;BME280_pressure;Samples;Min_cycle;Max_cycle;Signal;HPM_P1;HPM_P2
2021/03/02 00:01:51;;;;;;;44.37;12.87;;;0.60;96.50;;;;;;5033767;28;20460;-59
2021/03/02 00:04:17;;;;;;;26.03;11.77;;;0.50;96.50;;;;;;5028620;28;20596;-59
2021/03/02 00:06:43;;;;;;;27.90;12.77;;;0.50;96.60;;;;;;5036823;28;20432;-60
2021/03/02 00:09:09;;;;;;;22.10;11.63;;;0.50;96.60;;;;;;5021241;28;20439;-59
2021/03/02 00:11:37;;;;;;;23.70;12.63;;;0.40;96.60;;;;;;5025478;28;20452;-60
2021/03/02 00:14:03;;;;;;;31.80;13.00;;;0.40;96.60;;;;;;5029433;28;20436;-59
2021/03/02 00:16:30;;;;;;;28.87;12.63;;;0.40;96.50;;;;;;5033197;28;20425;-60
2021/03/02 00:19:09;;;;;;;29.97;13.20;;;0.40;96.50;;;;;;5027661;28;20431;-59
2021/03/02 00:21:40;;;;;;;23.63;11.37;;;0.40;96.50;;;;;;5027289;28;20907;-59
2021/03/02 00:24:12;;;;;;;25.77;13.27;;;0.30;96.60;;;;;;5028001;28;20444;-58
2021/03/02 00:26:47;;;;;;;23.13;12.27;;;0.30;96.70;;;;;;5016739;28;20419;-60
2021/03/02 00:29:13;;;;;;;24.17;12.97;;;0.40;96.80;;;;;;5020501;28;20577;-60
2021/03/02 00:31:41;;;;;;;24.70;12.17;;;0.40;96.80;;;;;;5019227;28;20451;-59
2021/03/02 00:34:06;;;;;;;23.10;11.17;;;0.30;96.70;;;;;;5016838;28;20519;-61
2021/03/02 00:36:32;;;;;;;24.63;11.50;;;0.30;96.80;;;;;;4997055;28;20528;-59
2021/03/02 00:38:58;;;;;;;24.53;13.00;;;0.30;96.90;;;;;;5027481;28;20307;-59
2021/03/02 00:41:23;;;;;;;24.20;11.67;;;0.30;96.90;;;;;;5012959;28;20193;-58
2021/03/02 00:43:52;;;;;;;26.60;11.47;;;0.30;96.90;;;;;;5027290;28;20173;-59
2021/03/02 00:46:19;;;;;;;22.57;12.30;;;0.20;96.80;;;;;;5025627;28;20326;-59
2021/03/02 00:48:45;;;;;;;30.10;12.73;;;0.20;96.90;;;;;;5029400;28;20458;-59
2021/03/02 00:51:11;;;;;;;21.33;11.63;;;0.20;96.80;;;;;;5019292;28;20431;-60
2021/03/02 00:53:36;;;;;;;25.03;12.43;;;0.20;96.90;;;;;;5026701;28;20273;-59
2021/03/02 00:56:02;;;;;;;26.27;13.17;;;0.10;96.90;;;;;;5026548;28;20435;-60
2021/03/02 00:58:28;;;;;;;19.00;10.67;;;0.10;97.00;;;;;;5011811;28;20197;-59
2021/03/02 01:00:53;;;;;;;24.60;11.80;;;0.10;97.10;;;;;;5022375;28;20184;-59
2021/03/02 01:03:19;;;;;;;23.37;11.50;;;0.00;97.00;;;;;;5009179;28;20217;-59
2021/03/02 01:05:45;;;;;;;18.70;10.77;;;0.10;97.20;;;;;;5030028;28;20216;-59
2021/03/02 01:08:11;;;;;;;19.27;9.80;;;0.00;97.10;;;;;;5030874;28;20427;-59
2021/03/02 01:10:37;;;;;;;21.70;11.13;;;0.00;97.20;;;;;;5026699;28;20440;-60
2021/03/02 01:13:03;;;;;;;20.27;11.73;;;0.00;97.10;;;;;;5010924;28;20455;-59
2021/03/02 01:15:29;;;;;;;22.10;11.97;;;-0.10;97.10;;;;;;5013408;28;20205;-59
2021/03/02 01:17:54;;;;;;;26.53;11.73;;;-0.10;97.30;;;;;;5032704;28;20172;-59
2021/03/02 01:20:20;;;;;;;30.03;11.40;;;-0.10;97.50;;;;;;5024837;28;20296;-59
2021/03/02 01:22:45;;;;;;;24.80;12.00;;;-0.10;97.30;;;;;;4995543;28;20204;-58
2021/03/02 01:25:12;;;;;;;29.07;12.60;;;-0.20;97.70;;;;;;5016462;28;20476;-59
2021/03/02 01:27:38;;;;;;;23.17;11.37;;;-0.20;97.70;;;;;;5029186;28;20177;-60
2021/03/02 01:30:12;;;;;;;23.10;11.10;;;-0.20;97.70;;;;;;5026715;28;21441;-59
2021/03/02 01:32:39;;;;;;;28.63;12.13;;;-0.20;97.60;;;;;;5007528;28;20469;-59
2021/03/02 01:35:10;;;;;;;19.97;10.77;;;-0.10;97.40;;;;;;5026198;28;20451;-59
2021/03/02 01:37:36;;;;;;;22.23;11.50;;;-0.20;97.20;;;;;;5027173;28;20422;-59
2021/03/02 01:40:16;;;;;;;21.07;10.60;;;-0.20;97.20;;;;;;5009930;28;20428;-58
2021/03/02 01:42:43;;;;;;;23.80;10.50;;;-0.20;97.10;;;;;;5022688;28;20227;-59
2021/03/02 01:45:12;;;;;;;26.60;12.63;;;-0.20;96.90;;;;;;5021977;28;21151;-59
2021/03/02 01:47:38;;;;;;;25.27;11.63;;;-0.30;96.90;;;;;;5004819;28;20436;-60
2021/03/02 01:50:05;;;;;;;25.57;11.60;;;-0.30;97.20;;;;;;5028983;28;20479;-58
2021/03/02 01:52:32;;;;;;;23.20;11.93;;;-0.40;97.30;;;;;;5022451;28;20495;-58
2021/03/02 01:54:58;;;;;;;20.57;10.80;;;-0.40;97.40;;;;;;5031277;28;20494;-59
2021/03/02 01:57:24;;;;;;;25.43;10.80;;;-0.40;97.40;;;;;;5009608;28;20535;-60
2021/03/02 01:59:49;;;;;;;19.40;10.30;;;-0.40;97.40;;;;;;5025716;28;21063;-59
2021/03/02 02:02:24;;;;;;;25.23;9.93;;;-0.40;97.40;;;;;;5029950;28;20255;-59
2021/03/02 02:04:55;;;;;;;25.03;11.00;;;-0.40;97.50;;;;;;5042683;28;20705;-60
2021/03/02 02:07:37;;;;;;;19.20;9.83;;;-0.50;97.40;;;;;;5032990;28;20913;-59
2021/03/02 02:10:17;;;;;;;23.27;11.13;;;-0.50;97.40;;;;;;5046996;28;20447;-59
2021/03/02 02:12:49;;;;;;;26.63;10.30;;;-0.50;97.60;;;;;;5032476;28;20513;-59
2021/03/02 02:15:27;;;;;;;25.27;12.10;;;-0.60;97.70;;;;;;5028742;28;20459;-60
2021/03/02 02:18:21;;;;;;;21.60;9.80;;;-0.60;97.80;;;;;;5025398;28;20442;-59
2021/03/02 02:20:56;;;;;;;21.37;10.40;;;-0.60;98.00;;;;;;5012839;28;20514;-59
2021/03/02 02:23:38;;;;;;;20.90;10.53;;;-0.60;97.50;;;;;;5027624;28;20450;-59
2021/03/02 02:26:03;;;;;;;24.80;10.83;;;-0.60;97.20;;;;;;5024373;28;20489;-59
2021/03/02 02:28:33;;;;;;;22.77;10.57;;;-0.70;97.20;;;;;;5032804;28;20436;-58
2021/03/02 02:31:01;;;;;;;21.43;10.33;;;-0.70;97.20;;;;;;5012409;28;20518;-59
2021/03/02 02:33:35;;;;;;;24.60;10.90;;;-0.70;97.40;;;;;;5030170;28;20465;-58
2021/03/02 02:36:03;;;;;;;27.17;10.73;;;-0.70;97.60;;;;;;5024856;28;20411;-60
2021/03/02 02:38:30;;;;;;;24.30;12.30;;;-0.70;97.70;;;;;;5030079;28;20429;-62
2021/03/02 02:40:58;;;;;;;20.90;10.90;;;-0.70;97.80;;;;;;5044603;28;20447;-59
2021/03/02 02:43:25;;;;;;;22.73;10.30;;;-0.70;97.80;;;;;;5011914;28;20448;-59
2021/03/02 02:45:53;;;;;;;23.07;11.03;;;-0.70;98.00;;;;;;5032489;28;20453;-59
2021/03/02 02:48:19;;;;;;;20.87;10.33;;;-0.80;97.40;;;;;;5023199;28;20577;-59
2021/03/02 02:50:45;;;;;;;24.50;10.90;;;-0.70;97.40;;;;;;5031557;28;20422;-60
2021/03/02 02:53:11;;;;;;;25.30;10.27;;;-0.70;97.40;;;;;;5008779;28;20462;-59
2021/03/02 02:55:52;;;;;;;20.63;11.07;;;-0.70;97.40;;;;;;5030052;28;20863;-59
2021/03/02 02:58:23;;;;;;;18.47;9.50;;;-0.80;97.80;;;;;;5026764;28;20427;-60
2021/03/02 03:00:51;;;;;;;20.67;10.53;;;-0.80;97.40;;;;;;5035029;28;20962;-60
2021/03/02 03:03:21;;;;;;;23.57;11.00;;;-0.80;97.30;;;;;;5009531;28;20514;-59
2021/03/02 03:05:55;;;;;;;19.73;10.10;;;-0.80;97.30;;;;;;5011143;28;20442;-59
2021/03/02 03:08:25;;;;;;;19.93;10.30;;;-0.80;97.30;;;;;;5030131;28;21134;-59
2021/03/02 03:10:52;;;;;;;22.73;11.43;;;-0.90;97.20;;;;;;5030379;28;20484;-59
2021/03/02 03:13:20;;;;;;;27.40;11.40;;;-0.90;97.30;;;;;;5030391;28;20459;-59
2021/03/02 03:15:51;;;;;;;22.33;11.60;;;-0.90;97.30;;;;;;5031235;28;20431;-60
2021/03/02 03:18:23;;;;;;;19.37;9.97;;;-0.90;97.40;;;;;;5027464;28;20435;-61
2021/03/02 03:20:50;;;;;;;19.73;10.83;;;-1.00;97.50;;;;;;5033077;28;20474;-59
2021/03/02 03:23:17;;;;;;;16.77;9.50;;;-1.00;97.60;;;;;;5024659;28;20495;-59
2021/03/02 03:25:42;;;;;;;19.13;10.40;;;-1.00;97.50;;;;;;5005500;28;20444;-60
2021/03/02 03:28:10;;;;;;;19.03;9.57;;;-1.00;97.40;;;;;;4999152;28;20901;-59
2021/03/02 03:30:37;;;;;;;22.57;10.70;;;-1.10;97.50;;;;;;5024136;28;20737;-60
2021/03/02 03:33:07;;;;;;;19.90;10.00;;;-1.10;97.80;;;;;;5026963;28;20461;-59
2021/03/02 03:35:34;;;;;;;20.60;11.03;;;-1.10;98.00;;;;;;5030487;28;20427;-59
2021/03/02 03:38:00;;;;;;;25.43;11.13;;;-1.10;98.30;;;;;;5030796;28;20427;-59
2021/03/02 03:40:26;;;;;;;21.90;12.10;;;-1.10;98.20;;;;;;5026974;28;20474;-59
2021/03/02 03:42:52;;;;;;;22.60;10.73;;;-1.10;98.20;;;;;;5011493;28;20417;-62
2021/03/02 03:45:17;;;;;;;19.80;10.13;;;-1.10;98.00;;;;;;4990731;28;20192;-59
2021/03/02 03:47:44;;;;;;;19.50;10.33;;;-1.10;97.80;;;;;;5017428;28;20590;-59
2021/03/02 03:50:11;;;;;;;29.73;10.80;;;-1.20;97.70;;;;;;5034362;28;20197;-61
2021/03/02 03:52:41;;;;;;;23.10;10.50;;;-1.20;97.70;;;;;;5027017;28;20430;-60
2021/03/02 03:55:09;;;;;;;22.00;9.87;;;-1.20;98.00;;;;;;5023782;28;20471;-59
2021/03/02 03:57:35;;;;;;;26.03;10.17;;;-1.30;97.80;;;;;;5028912;28;20501;-60
2021/03/02 04:00:01;;;;;;;24.53;11.53;;;-1.30;98.10;;;;;;5030496;28;20510;-60
2021/03/02 04:02:28;;;;;;;20.40;10.37;;;-1.30;98.30;;;;;;5024789;28;20460;-60
2021/03/02 04:04:55;;;;;;;22.77;10.10;;;-1.30;98.30;;;;;;5027458;28;20462;-60
2021/03/02 04:07:21;;;;;;;18.60;9.47;;;-1.30;98.10;;;;;;5027110;28;20512;-59
2021/03/02 04:09:48;;;;;;;22.50;10.70;;;-1.30;98.00;;;;;;5028096;28;20442;-60
2021/03/02 04:12:14;;;;;;;20.57;10.00;;;-1.30;98.00;;;;;;5029071;28;20459;-59
2021/03/02 04:14:41;;;;;;;24.37;10.40;;;-1.30;98.00;;;;;;5018859;28;20423;-60
2021/03/02 04:17:10;;;;;;;24.83;10.63;;;-1.30;98.10;;;;;;5022130;28;20563;-60
2021/03/02 04:19:38;;;;;;;22.83;11.00;;;-1.30;98.10;;;;;;5030535;28;20751;-59
2021/03/02 04:22:04;;;;;;;31.43;11.50;;;-1.40;98.10;;;;;;5027483;28;20455;-60
2021/03/02 04:24:30;;;;;;;21.40;11.13;;;-1.40;98.10;;;;;;5020265;28;20437;-59
2021/03/02 04:26:56;;;;;;;20.07;10.77;;;-1.40;98.10;;;;;;5010857;28;20433;-59
2021/03/02 04:29:22;;;;;;;25.97;10.90;;;-1.40;98.00;;;;;;5019397;28;20173;-61
2021/03/02 04:31:48;;;;;;;23.33;10.13;;;-1.50;97.90;;;;;;5009131;28;20451;-60
2021/03/02 04:34:13;;;;;;;21.07;10.17;;;-1.50;97.90;;;;;;5030224;28;20430;-59
2021/03/02 04:36:41;;;;;;;21.10;11.00;;;-1.50;97.90;;;;;;5021139;28;20193;-59
2021/03/02 04:39:07;;;;;;;25.10;11.33;;;-1.60;97.80;;;;;;5028208;28;20173;-60
2021/03/02 04:41:32;;;;;;;23.50;11.50;;;-1.60;97.80;;;;;;5029459;28;20577;-59
2021/03/02 04:43:58;;;;;;;29.50;10.97;;;-1.60;98.20;;;;;;5007509;28;21036;-60
2021/03/02 04:46:24;;;;;;;29.17;11.70;;;-1.60;98.40;;;;;;5019117;28;20202;-59
2021/03/02 04:48:50;;;;;;;18.87;9.40;;;-1.60;98.40;;;;;;5025568;28;20868;-59
2021/03/02 04:51:16;;;;;;;21.53;10.17;;;-1.60;98.10;;;;;;5021570;28;20221;-60
2021/03/02 04:53:41;;;;;;;22.27;11.43;;;-1.60;97.90;;;;;;5027383;28;20209;-60
2021/03/02 04:56:07;;;;;;;27.27;9.67;;;-1.60;97.90;;;;;;5011322;28;20427;-61
2021/03/02 04:58:33;;;;;;;23.20;10.40;;;-1.60;97.90;;;;;;5024475;28;20177;-58
2021/03/02 05:00:59;;;;;;;20.10;10.07;;;-1.60;97.90;;;;;;5000902;28;20180;-61
2021/03/02 05:03:25;;;;;;;23.03;10.40;;;-1.60;97.70;;;;;;5024416;28;20463;-60
2021/03/02 05:05:51;;;;;;;24.80;10.07;;;-1.60;97.60;;;;;;5025268;28;20501;-60
2021/03/02 05:08:16;;;;;;;20.70;9.87;;;-1.60;97.70;;;;;;5023807;28;20704;-59
2021/03/02 05:10:42;;;;;;;25.47;10.20;;;-1.60;97.60;;;;;;5026925;28;20869;-60
2021/03/02 05:13:08;;;;;;;25.20;10.37;;;-1.60;97.60;;;;;;5024388;28;20683;-61
2021/03/02 05:15:33;;;;;;;29.60;11.27;;;-1.60;97.60;;;;;;5031022;28;20642;-61
2021/03/02 05:17:59;;;;;;;26.50;11.47;;;-1.60;97.70;;;;;;5030914;28;20195;-62
2021/03/02 05:20:24;;;;;;;18.77;9.30;;;-1.70;97.80;;;;;;5051388;28;20173;-61
2021/03/02 05:22:50;;;;;;;21.37;10.17;;;-1.70;97.80;;;;;;5030089;28;20215;-61
2021/03/02 05:25:16;;;;;;;21.93;10.00;;;-1.70;97.70;;;;;;5053935;28;20248;-62
2021/03/02 05:27:41;;;;;;;24.30;9.50;;;-1.80;97.60;;;;;;5036020;28;20182;-59
2021/03/02 05:30:09;;;;;;;24.87;9.83;;;-1.80;97.50;;;;;;5063790;28;20200;-61
2021/03/02 05:32:34;;;;;;;21.07;10.63;;;-1.80;97.60;;;;;;5048341;28;20461;-64
2021/03/02 05:35:00;;;;;;;18.53;10.53;;;-1.80;97.80;;;;;;5030426;28;20446;-60
2021/03/02 05:37:26;;;;;;;21.43;10.07;;;-1.80;97.80;;;;;;5020138;28;20251;-60
2021/03/02 05:39:51;;;;;;;20.10;10.10;;;-1.80;97.90;;;;;;5024958;28;20226;-60
2021/03/02 05:42:17;;;;;;;19.70;11.27;;;-1.80;98.20;;;;;;5018050;28;20720;-60
2021/03/02 05:44:46;;;;;;;19.40;10.47;;;-1.80;98.30;;;;;;5026247;28;20773;-60
2021/03/02 05:47:11;;;;;;;20.03;10.77;;;-1.80;98.40;;;;;;5027583;28;20445;-60
2021/03/02 05:49:40;;;;;;;22.60;11.07;;;-1.80;98.60;;;;;;5019745;28;20420;-62
2021/03/02 05:52:06;;;;;;;18.20;10.30;;;-1.80;98.50;;;;;;5027952;28;20736;-60
2021/03/02 05:54:33;;;;;;;30.13;10.87;;;-1.80;98.40;;;;;;5007845;28;20444;-59
2021/03/02 05:56:58;;;;;;;22.20;10.37;;;-1.80;98.20;;;;;;5018277;28;20466;-58
2021/03/02 05:59:24;;;;;;;18.70;10.10;;;-1.80;98.20;;;;;;5018680;28;20534;-59
2021/03/02 06:01:51;;;;;;;18.77;10.17;;;-1.80;98.10;;;;;;5017168;28;20202;-61
2021/03/02 06:04:17;;;;;;;19.47;10.50;;;-1.80;98.00;;;;;;5023379;28;20719;-61
2021/03/02 06:06:43;;;;;;;30.00;12.63;;;-1.90;97.90;;;;;;5038248;28;20467;-61
2021/03/02 06:09:09;;;;;;;29.13;11.83;;;-1.80;98.00;;;;;;5010281;28;20220;-61
2021/03/02 06:11:36;;;;;;;29.10;11.17;;;-1.80;98.20;;;;;;5022499;28;20475;-60
2021/03/02 06:14:19;;;;;;;23.20;10.87;;;-1.80;98.30;;;;;;5036790;28;20426;-59
2021/03/02 06:16:49;;;;;;;25.80;10.73;;;-1.80;98.50;;;;;;5016534;28;20918;-59
2021/03/02 06:19:14;;;;;;;20.30;10.53;;;-1.80;98.50;;;;;;5022366;28;20434;-59
2021/03/02 06:21:43;;;;;;;21.30;10.90;;;-1.80;98.50;;;;;;5024696;28;20455;-60
2021/03/02 06:24:10;;;;;;;16.57;10.20;;;-1.80;98.40;;;;;;5026192;28;20174;-59
2021/03/02 06:26:37;;;;;;;21.47;11.50;;;-1.80;98.20;;;;;;5021698;28;20777;-59
2021/03/02 06:29:14;;;;;;;33.43;11.60;;;-1.80;98.00;;;;;;4992797;28;20451;-61
2021/03/02 06:31:45;;;;;;;29.70;12.23;;;-1.80;97.90;;;;;;5005371;28;20429;-60
2021/03/02 06:34:23;;;;;;;24.90;12.57;;;-1.80;98.00;;;;;;5029438;28;20524;-60
2021/03/02 06:36:55;;;;;;;28.70;11.20;;;-1.80;98.20;;;;;;5023996;28;20504;-59
2021/03/02 06:39:34;;;;;;;24.57;11.77;;;-1.80;98.30;;;;;;5024661;28;20411;-58
2021/03/02 06:42:20;;;;;;;25.90;11.90;;;-1.80;98.20;;;;;;5020325;28;20458;-59
2021/03/02 06:44:48;;;;;;;30.50;11.67;;;-1.70;98.10;;;;;;5031141;28;20420;-58
2021/03/02 06:47:28;;;;;;;21.60;12.53;;;-1.70;98.20;;;;;;5021213;28;20515;-59
2021/03/02 06:49:53;;;;;;;20.37;11.07;;;-1.70;98.20;;;;;;5025489;28;20862;-59
2021/03/02 06:52:19;;;;;;;23.07;11.17;;;-1.70;98.20;;;;;;5020437;28;20471;-59
2021/03/02 06:54:47;;;;;;;23.47;11.80;;;-1.60;98.30;;;;;;5017968;28;20253;-58
2021/03/02 06:57:23;;;;;;;32.80;12.73;;;-1.60;98.20;;;;;;5023250;28;20424;-58
2021/03/02 06:59:52;;;;;;;24.10;11.37;;;-1.50;98.30;;;;;;5036381;28;20523;-59
2021/03/02 07:02:35;;;;;;;28.87;12.00;;;-1.40;98.40;;;;;;5002452;28;20589;-59
2021/03/02 07:05:14;;;;;;;28.87;12.73;;;-1.30;98.40;;;;;;5023705;28;20414;-59
2021/03/02 07:07:45;;;;;;;25.57;12.50;;;-1.30;98.20;;;;;;5020034;28;20409;-59
2021/03/02 07:10:12;;;;;;;27.87;11.53;;;-1.20;98.30;;;;;;5020731;28;20451;-59
2021/03/02 07:12:40;;;;;;;26.93;12.97;;;-1.20;98.30;;;;;;5021077;28;20470;-58
2021/03/02 07:15:17;;;;;;;26.37;11.67;;;-1.10;98.30;;;;;;5019211;28;20407;-59
2021/03/02 07:17:44;;;;;;;26.83;12.10;;;-1.00;98.10;;;;;;5020764;28;20398;-60
2021/03/02 07:20:12;;;;;;;22.97;13.20;;;-0.90;98.30;;;;;;5023531;28;20443;-61
2021/03/02 07:22:40;;;;;;;25.07;13.10;;;-0.90;98.20;;;;;;5020478;28;20457;-61
2021/03/02 07:25:10;;;;;;;27.50;12.87;;;-0.80;98.30;;;;;;5023555;28;20448;-59
2021/03/02 07:27:41;;;;;;;26.73;12.10;;;-0.70;98.20;;;;;;5025994;28;20464;-59
2021/03/02 07:30:08;;;;;;;28.23;13.13;;;-0.60;98.00;;;;;;5030634;28;20399;-59
2021/03/02 07:32:34;;;;;;;32.07;14.30;;;-0.50;98.00;;;;;;5005981;28;20446;-60
2021/03/02 07:35:00;;;;;;;29.33;14.60;;;-0.40;98.00;;;;;;5021311;28;20854;-60
2021/03/02 07:37:26;;;;;;;37.07;14.67;;;-0.30;98.00;;;;;;5027440;28;20418;-62
2021/03/02 07:40:01;;;;;;;40.77;16.13;;;-0.20;97.90;;;;;;5026708;28;20423;-60
2021/03/02 07:42:27;;;;;;;29.20;14.50;;;-0.10;97.80;;;;;;5012481;28;20297;-60
2021/03/02 07:45:04;;;;;;;33.30;16.57;;;-0.10;97.80;;;;;;5023746;28;20443;-60
2021/03/02 07:47:50;;;;;;;30.17;13.97;;;0.10;97.90;;;;;;5033415;28;20543;-60
2021/03/02 07:50:27;;;;;;;31.20;14.27;;;0.10;98.10;;;;;;5029631;28;20477;-60
2021/03/02 07:53:15;;;;;;;33.70;13.93;;;0.20;98.10;;;;;;5024598;28;20435;-60
2021/03/02 07:55:42;;;;;;;33.03;13.97;;;0.30;98.10;;;;;;5000891;28;20436;-61
2021/03/02 07:58:16;;;;;;;31.93;13.30;;;0.40;98.20;;;;;;5008166;28;20451;-59
2021/03/02 08:00:48;;;;;;;27.77;13.63;;;0.50;98.20;;;;;;5025738;28;20486;-61
2021/03/02 08:03:20;;;;;;;35.17;14.20;;;0.60;98.20;;;;;;5038176;28;21026;-60
2021/03/02 08:05:48;;;;;;;25.77;13.17;;;0.70;98.20;;;;;;5017035;28;20437;-61
2021/03/02 08:08:33;;;;;;;30.97;15.20;;;0.80;98.10;;;;;;5029279;28;20497;-60
2021/03/02 08:11:23;;;;;;;27.20;14.77;;;0.80;98.00;;;;;;5024327;28;20521;-60
2021/03/02 08:13:48;;;;;;;40.90;15.27;;;0.90;98.10;;;;;;5029925;28;20467;-61
2021/03/02 08:16:14;;;;;;;29.97;15.63;;;1.00;98.10;;;;;;5027430;28;20513;-60
2021/03/02 08:18:41;;;;;;;32.10;15.70;;;1.10;98.00;;;;;;5030465;28;20181;-60
2021/03/02 08:21:21;;;;;;;29.17;14.67;;;1.20;98.10;;;;;;5024697;28;20181;-60
2021/03/02 08:23:50;;;;;;;26.67;14.47;;;1.30;98.40;;;;;;5029158;28;21223;-60
2021/03/02 08:26:34;;;;;;;34.70;15.77;;;1.40;98.70;;;;;;5027004;28;20537;-61
2021/03/02 08:29:18;;;;;;;27.17;14.53;;;1.50;98.60;;;;;;5020203;28;20470;-61
2021/03/02 08:31:46;;;;;;;30.90;14.53;;;1.60;98.50;;;;;;5018064;28;20464;-60
2021/03/02 08:34:13;;;;;;;34.50;14.80;;;1.70;98.70;;;;;;5022157;28;20557;-60
2021/03/02 08:36:40;;;;;;;31.87;15.20;;;1.90;98.60;;;;;;5003238;28;20447;-60
2021/03/02 08:39:14;;;;;;;31.27;14.40;;;2.00;98.40;;;;;;5028019;28;20431;-60
2021/03/02 08:41:45;;;;;;;29.20;13.43;;;2.10;98.50;;;;;;5017977;28;21054;-59
2021/03/02 08:44:23;;;;;;;28.33;14.00;;;2.20;98.40;;;;;;5023954;28;20459;-59
2021/03/02 08:46:58;;;;;;;26.00;12.67;;;2.30;98.10;;;;;;5021439;28;20447;-59
2021/03/02 08:49:25;;;;;;;27.07;13.77;;;2.50;98.10;;;;;;5025041;28;20465;-59
2021/03/02 08:52:03;;;;;;;26.90;14.23;;;2.60;97.90;;;;;;5021698;28;20456;-59
2021/03/02 08:54:29;;;;;;;31.87;15.70;;;2.70;98.00;;;;;;5021071;28;20443;-59
2021/03/02 08:57:05;;;;;;;32.97;15.47;;;2.80;98.40;;;;;;5009333;28;20441;-58
2021/03/02 08:59:32;;;;;;;30.03;15.20;;;2.90;98.40;;;;;;5002199;28;20301;-59
2021/03/02 09:01:58;;;;;;;27.87;14.63;;;3.10;98.90;;;;;;5022800;28;20456;-60
2021/03/02 09:04:31;;;;;;;32.83;15.07;;;3.20;98.60;;;;;;5008251;28;20435;-59
2021/03/02 09:06:56;;;;;;;30.20;15.70;;;3.40;98.40;;;;;;5022903;28;20180;-59
2021/03/02 09:09:24;;;;;;;33.27;17.60;;;3.50;98.20;;;;;;5026733;28;20434;-59
2021/03/02 09:11:59;;;;;;;27.77;15.10;;;3.70;97.90;;;;;;5024208;28;20210;-59
2021/03/02 09:14:36;;;;;;;32.23;15.97;;;3.80;97.40;;;;;;5025508;28;20452;-60
2021/03/02 09:17:04;;;;;;;38.27;16.03;;;4.00;97.50;;;;;;5024239;28;20442;-59
2021/03/02 09:19:31;;;;;;;29.23;15.47;;;4.10;97.10;;;;;;5038757;28;20536;-59
2021/03/02 09:22:06;;;;;;;28.53;14.90;;;4.30;97.00;;;;;;5026679;28;20498;-59
2021/03/02 09:24:36;;;;;;;33.30;16.50;;;4.40;97.20;;;;;;5006144;28;20418;-59
2021/03/02 09:27:11;;;;;;;36.47;18.20;;;4.60;97.10;;;;;;5004098;28;20440;-60
2021/03/02 09:29:45;;;;;;;45.07;18.40;;;4.80;97.20;;;;;;5004519;28;20802;-59
2021/03/02 09:32:14;;;;;;;41.73;17.70;;;5.00;96.60;;;;;;5024084;28;21165;-60
2021/03/02 09:34:43;;;;;;;34.97;18.10;;;5.20;96.10;;;;;;5030435;28;20452;-60
2021/03/02 09:37:12;;;;;;;36.80;19.00;;;5.40;96.80;;;;;;5005116;28;20466;-60
2021/03/02 09:39:40;;;;;;;38.77;19.30;;;5.60;96.30;;;;;;5022399;28;20427;-59
2021/03/02 09:42:20;;;;;;;36.80;17.70;;;5.80;95.80;;;;;;5038521;28;20516;-59
2021/03/02 09:44:50;;;;;;;34.63;17.13;;;6.00;96.40;;;;;;5036652;28;20422;-60
2021/03/02 09:47:23;;;;;;;37.43;18.47;;;6.20;95.20;;;;;;5028175;28;21156;-59
2021/03/02 09:49:55;;;;;;;29.10;16.80;;;6.50;95.20;;;;;;5029694;28;20540;-62
2021/03/02 09:52:21;;;;;;;32.77;17.13;;;6.70;94.40;;;;;;5047167;28;21187;-60
2021/03/02 09:55:18;;;;;;;27.50;15.67;;;6.90;93.80;;;;;;4998338;28;20427;-60
2021/03/02 09:57:52;;;;;;;31.43;16.53;;;7.20;93.20;;;;;;5033398;28;20238;-60
2021/03/02 10:00:30;;;;;;;27.40;15.70;;;7.50;92.50;;;;;;5019743;28;20432;-59
2021/03/02 10:02:57;;;;;;;28.37;15.67;;;7.70;91.80;;;;;;5035932;28;20475;-60
2021/03/02 10:05:37;;;;;;;29.93;15.37;;;8.00;91.20;;;;;;5024546;28;20441;-61
2021/03/02 10:08:21;;;;;;;28.20;14.53;;;8.20;89.80;;;;;;5002554;28;20437;-60
2021/03/02 10:10:48;;;;;;;26.30;14.33;;;8.40;85.10;;;;;;5021991;28;20465;-59
2021/03/02 10:13:28;;;;;;;23.47;13.10;;;8.60;81.50;;;;;;5030365;28;20530;-60
2021/03/02 10:16:16;;;;;;;23.97;13.80;;;8.80;80.30;;;;;;5017456;28;21033;-59
2021/03/02 10:19:05;;;;;;;24.73;14.67;;;9.00;72.40;;;;;;5030627;28;20509;-60
2021/03/02 10:21:36;;;;;;;27.57;14.43;;;9.20;73.20;;;;;;5017821;28;20430;-60
2021/03/02 10:24:03;;;;;;;32.13;15.90;;;9.50;69.50;;;;;;5031677;28;20497;-60
2021/03/02 10:26:30;;;;;;;24.93;14.90;;;9.70;68.50;;;;;;5022275;28;20444;-59
2021/03/02 10:28:57;;;;;;;22.00;14.23;;;10.00;64.10;;;;;;5020358;28;20424;-60
2021/03/02 10:31:23;;;;;;;27.83;12.67;;;10.20;61.70;;;;;;5024150;28;20484;-60
2021/03/02 10:33:49;;;;;;;23.80;12.13;;;10.40;59.10;;;;;;5020717;28;20453;-60
2021/03/02 10:36:22;;;;;;;28.53;13.30;;;10.60;56.20;;;;;;5029746;28;20457;-59
2021/03/02 10:38:49;;;;;;;20.03;11.77;;;10.80;55.20;;;;;;5021454;28;20438;-59
2021/03/02 10:41:15;;;;;;;22.73;12.97;;;11.00;54.80;;;;;;5004611;28;20972;-59
2021/03/02 10:43:41;;;;;;;27.57;13.33;;;11.20;54.00;;;;;;5002334;28;20476;-60
2021/03/02 10:46:07;;;;;;;25.00;13.20;;;11.40;51.80;;;;;;5027699;28;20939;-60
2021/03/02 10:48:35;;;;;;;22.53;12.07;;;11.60;50.80;;;;;;5027433;28;20171;-61
2021/03/02 10:51:03;;;;;;;18.83;11.03;;;11.90;50.70;;;;;;5006806;28;21009;-60
2021/03/02 10:53:28;;;;;;;25.60;11.60;;;12.10;48.80;;;;;;5020845;28;20521;-60
2021/03/02 10:55:54;;;;;;;18.37;11.10;;;12.20;47.70;;;;;;5011843;28;20446;-60
2021/03/02 10:58:20;;;;;;;21.40;11.23;;;12.40;48.00;;;;;;5037721;28;20461;-60
2021/03/02 11:00:46;;;;;;;18.00;10.30;;;12.70;47.00;;;;;;5026637;28;20241;-60
2021/03/02 11:03:12;;;;;;;17.33;10.83;;;12.90;46.30;;;;;;5029145;28;20220;-60
2021/03/02 11:05:38;;;;;;;18.97;11.10;;;13.10;45.70;;;;;;5025982;28;20444;-60
2021/03/02 11:08:04;;;;;;;19.03;10.80;;;13.30;45.00;;;;;;5027705;28;20679;-60
2021/03/02 11:10:32;;;;;;;22.53;10.13;;;13.60;44.00;;;;;;5019638;28;20184;-61
2021/03/02 11:12:58;;;;;;;17.83;10.20;;;13.80;42.80;;;;;;5030917;28;20195;-61
2021/03/02 11:15:23;;;;;;;21.13;10.10;;;13.90;41.80;;;;;;5035754;28;20527;-61
2021/03/02 11:17:49;;;;;;;16.80;9.73;;;14.10;41.70;;;;;;5022267;28;20234;-61
2021/03/02 11:20:16;;;;;;;22.97;9.63;;;14.40;41.70;;;;;;5029167;28;20661;-61
2021/03/02 11:22:42;;;;;;;16.90;9.10;;;14.60;41.60;;;;;;5010208;28;20211;-61
2021/03/02 11:25:08;;;;;;;20.83;10.57;;;14.90;39.60;;;;;;5024362;28;20442;-62
2021/03/02 11:27:34;;;;;;;16.37;10.17;;;15.20;37.90;;;;;;5032954;28;20752;-60
2021/03/02 11:30:00;;;;;;;14.17;8.83;;;15.50;37.90;;;;;;5041151;28;20442;-61
2021/03/02 11:32:25;;;;;;;20.70;9.90;;;15.90;36.70;;;;;;5006310;28;20222;-61
2021/03/02 11:34:51;;;;;;;18.33;9.40;;;16.30;36.50;;;;;;5024759;28;20182;-61
2021/03/02 11:37:17;;;;;;;19.83;9.03;;;16.80;34.60;;;;;;5022276;28;20191;-60
2021/03/02 11:39:43;;;;;;;16.07;8.00;;;17.20;35.20;;;;;;5005902;28;20195;-62
2021/03/02 11:42:08;;;;;;;13.50;7.43;;;17.80;34.70;;;;;;5029449;28;20207;-60
2021/03/02 11:44:34;;;;;;;19.47;8.30;;;18.20;32.50;;;;;;5028026;28;20184;-61
2021/03/02 11:47:00;;;;;;;21.80;11.27;;;18.80;32.90;;;;;;5024247;28;20179;-61
2021/03/02 11:49:25;;;;;;;15.40;6.43;;;19.30;33.20;;;;;;5027286;28;20179;-61
2021/03/02 11:51:51;;;;;;;15.27;7.13;;;19.90;31.90;;;;;;5026360;28;20207;-60
2021/03/02 11:54:17;;;;;;;10.23;6.97;;;20.40;30.30;;;;;;5036855;28;20269;-60
2021/03/02 11:56:42;;;;;;;12.97;7.70;;;20.90;30.00;;;;;;5035529;28;20744;-62
2021/03/02 11:59:08;;;;;;;14.27;7.60;;;21.30;29.70;;;;;;5025259;28;20810;-62
2021/03/02 12:01:34;;;;;;;12.70;6.90;;;21.70;29.20;;;;;;5021375;28;20329;-64
2021/03/02 12:03:59;;;;;;;16.23;8.00;;;22.10;28.80;;;;;;5021609;28;20281;-62
2021/03/02 12:06:25;;;;;;;11.07;7.70;;;22.50;29.30;;;;;;5024308;28;20198;-63
2021/03/02 12:08:51;;;;;;;15.87;7.60;;;22.90;27.60;;;;;;5023483;28;20187;-63
2021/03/02 12:11:18;;;;;;;10.87;6.40;;;23.20;27.80;;;;;;5026191;28;20242;-64
2021/03/02 12:13:43;;;;;;;14.93;7.17;;;23.40;27.10;;;;;;5023004;28;20199;-62
2021/03/02 12:16:09;;;;;;;10.50;6.70;;;23.60;26.30;;;;;;5024142;28;20504;-62
2021/03/02 12:18:35;;;;;;;12.67;8.00;;;23.80;26.80;;;;;;5023314;28;20179;-63
2021/03/02 12:21:01;;;;;;;11.93;7.07;;;24.00;25.70;;;;;;5007791;28;20184;-62
2021/03/02 12:23:27;;;;;;;10.20;7.10;;;24.10;26.10;;;;;;5029912;28;20206;-62
2021/03/02 12:25:52;;;;;;;11.43;7.47;;;24.10;25.50;;;;;;5023724;28;20179;-63
2021/03/02 12:28:18;;;;;;;11.10;7.50;;;24.00;25.00;;;;;;5021866;28;20252;-62
2021/03/02 12:30:45;;;;;;;14.80;7.43;;;23.90;24.90;;;;;;5028453;28;20933;-63
2021/03/02 12:33:11;;;;;;;11.27;7.70;;;23.70;25.20;;;;;;5022884;28;20277;-63
2021/03/02 12:35:36;;;;;;;17.47;8.20;;;23.50;25.20;;;;;;5023663;28;20963;-61
2021/03/02 12:38:02;;;;;;;20.80;8.30;;;23.20;25.20;;;;;;5033150;28;20191;-62
2021/03/02 12:40:30;;;;;;;16.37;8.00;;;23.00;25.50;;;;;;5028000;28;20210;-62